Flight Track Log - Related Links

Times and Time Zones

All times are in EDT time to prevent confusion due to time zone crossing. See the CHH7007 flight status page for this flight to view local times or setup timezone preferences in your user account.

Time Position Orientation Groundspeed Altitude Reporting Facility
EDT Latitude Longitude Course Direction KTS MPH feet Rate Location/Type
Mon 01:16:00 AM 20.0219 110.5284 37° Northeast  Level Estimated
Mon 01:17:00 AM 20.1089 110.5979 37° Northeast  Level Estimated
Mon 01:18:00 AM 20.1959 110.6675 37° Northeast  Level Estimated
Mon 01:19:00 AM 20.2829 110.7371 37° Northeast  Level Estimated
Mon 01:20:00 AM 20.3699 110.8069 37° Northeast  Level Estimated
Mon 01:21:00 AM 20.4568 110.8767 37° Northeast  Level Estimated
Mon 01:22:00 AM 20.5437 110.9466 37° Northeast  Level Estimated
Mon 01:23:00 AM 20.6305 111.0166 37° Northeast  Level Estimated
Mon 01:24:00 AM 20.6937 111.0675 37° Northeast  Level Estimated
Mon 01:25:00 AM 20.7568 111.1185 37° Northeast  Level Estimated
Mon 01:26:00 AM 20.8199 111.1695 37° Northeast  Level Estimated
Mon 01:27:00 AM 20.8831 111.2206 37° Northeast  Level Estimated
Mon 01:28:00 AM 20.9461 111.2717 37° Northeast  Level Estimated
Mon 01:29:00 AM 21.0092 111.3229 37° Northeast  Level Estimated
Mon 01:29:25 AM 22.4950 111.8410 37° Northeast 373 429 22,100  Level FlightAware
Mon 01:30:00 AM 21.0723 111.3740 37° Northeast  Level Estimated
Mon 01:30:06 AM 22.5400 111.8910 46° Northeast 380 437 21,800  Level FlightAware
Mon 01:30:42 AM 22.5770 111.9330 46° Northeast 380 437 21,800 -1,881 Level FlightAware
Mon 01:31:13 AM 22.6300 111.9920 46° Northeast 400 460 19,700 -2,852 Descending FlightAware
Mon 01:31:43 AM 22.6710 112.0370 45° Northeast 402 463 18,900 -1,541 Descending FlightAware
Mon 01:32:27 AM 22.7260 112.0990 46° Northeast 400 460 17,800 -1,467 Descending FlightAware
Mon 01:33:13 AM 22.7860 112.1670 46° Northeast 398 458 16,700 -1,500 Descending FlightAware
Mon 01:33:47 AM 22.8270 112.2180 49° Northeast 397 457 15,800 -1,500 Descending FlightAware
Mon 01:33:57 AM 22.8340 112.2370 68° East 398 458 15,600 -1,467 Descending FlightAware
Mon 01:34:32 AM 22.8510 112.3020 74° East 391 450 14,700 -1,500 Descending FlightAware
Mon 01:35:05 AM 22.8680 112.3640 73° East 383 441 13,900 -1,478 Descending FlightAware
Mon 01:35:41 AM 22.8870 112.4290 72° East 375 432 13,000 -1,333 Descending FlightAware
Mon 01:36:17 AM 22.9040 112.4940 74° East 367 422 12,300 -1,000 Descending FlightAware
Mon 01:36:47 AM 22.9180 112.5450 73° East 362 417 11,900 -783 Descending FlightAware
Mon 01:37:26 AM 22.9460 112.6090 65° Northeast 362 417 11,400 -811 Descending FlightAware
Mon 01:38:01 AM 22.9710 112.6660 65° Northeast 352 405 10,900 -930 Descending FlightAware
Mon 01:38:37 AM 22.9950 112.7220 65° Northeast 325 374 10,300 -1,053 Descending FlightAware
Mon 01:38:58 AM 23.0080 112.7510 64° Northeast 314 361 9,900 -1,200 Descending FlightAware
Mon 01:39:17 AM 23.0200 112.7780 64° Northeast 310 357 9,500 -1,231 Descending FlightAware
Mon 01:39:37 AM 23.0320 112.8050 64° Northeast 305 351 9,100 -1,256 Descending FlightAware
Mon 01:40:00 AM 23.0460 112.8360 64° Northeast 300 345 8,600 -1,333 Descending FlightAware
Mon 01:40:22 AM 23.0590 112.8660 65° Northeast 292 336 8,100 -1,571 Descending FlightAware
Mon 01:40:42 AM 23.0710 112.8920 63° Northeast 289 333 7,500 -1,742 Descending FlightAware
Mon 01:40:53 AM 23.0780 112.9070 63° Northeast 287 330 7,200 -1,543 Descending FlightAware
Mon 01:41:17 AM 23.0920 112.9380 64° Northeast 282 325 6,600 -1,636 Descending FlightAware
Mon 01:41:37 AM 23.1030 112.9630 64° Northeast 281 323 6,000 -1,650 Descending FlightAware
Mon 01:41:57 AM 23.1150 112.9890 63° Northeast 275 316 5,500 -1,650 Descending FlightAware
Mon 01:42:17 AM 23.1260 113.0140 64° Northeast 274 315 4,900 -1,737 Descending FlightAware
Mon 01:42:35 AM 23.1350 113.0350 65° Northeast 271 312 4,400 -1,421 Descending FlightAware
Mon 01:42:55 AM 23.1450 113.0590 66° East 265 305 4,000 -1,313 Descending FlightAware
Mon 01:43:07 AM 23.1520 113.0750 65° Northeast 261 300 3,700 -1,297 Descending FlightAware
Mon 01:43:32 AM 23.1640 113.1040 66° East 258 297 3,200 -837 Descending FlightAware
Mon 01:43:50 AM 23.1730 113.1240 64° Northeast 246 283 3,100 -581 Descending FlightAware
Mon 01:44:03 AM 23.1790 113.1380 65° Northeast 242 278 2,900 -581 Descending FlightAware
Mon 01:44:21 AM 23.1870 113.1580 66° East 229 264 2,800 -333 Descending FlightAware
Mon 01:44:39 AM 23.1950 113.1760 64° Northeast 213 245 2,700 -632 Descending FlightAware
Mon 01:44:59 AM 23.2030 113.1940 64° Northeast 198 228 2,400 -400 Descending FlightAware
Mon 01:45:24 AM 23.2110 113.2160 68° East 188 216 2,400 136 Level FlightAware
Mon 01:45:43 AM 23.2180 113.2330 66° East 188 216 2,500  Climbing FlightAware
Mon 01:45:55 AM 23.2240 113.2430 57° Northeast 186 214 2,400 -286 Descending FlightAware
Mon 01:46:04 AM 23.2290 113.2470 36° Northeast 182 209 2,400  Level FlightAware
Mon 01:46:24 AM 23.2430 113.2590 38° Northeast 180 207 2,400  Level FlightAware
Mon 01:46:47 AM 23.2580 113.2720 39° Northeast 175 201 2,400 -514 Level FlightAware
Mon 01:46:59 AM 23.2670 113.2760 22° Northeast 174 200 2,100 -1,091 Descending FlightAware
Mon 01:47:20 AM 23.2820 113.2800 14° North 161 185 1,800 -818 Descending FlightAware
Mon 01:47:43 AM 23.2980 113.2840 13° North 153 176 1,500 -732 Descending FlightAware
Mon 01:48:01 AM 23.3100 113.2880 17° North 146 168 1,300 -279 Descending FlightAware
Mon 01:48:26 AM 23.3240 113.2910 11° North 146 168 1,300  Level FlightAware
Mon 01:51:00 AM 23.3924 113.2988 North  Level Estimated
Mon 01:52:00 AM 23.3924 113.2988 223° Southwest  Level Estimated
Mon 01:53:00 AM 23.3924 113.2988 223° Southwest  Level Estimated
Mon 01:54:00 AM 23.3924 113.2988 223° Southwest  Level Estimated
Mon 01:55:00 AM 23.3924 113.2988 223° Southwest  Level Estimated
Mon 01:56:00 AM 23.3924 113.2988 223° Southwest  Level Estimated
Mon 01:57:00 AM 23.3924 113.2988 223° Southwest  Level Estimated
Mon 01:58:00 AM 23.3924 113.2988 223° Southwest  Level Estimated
Mon 01:59:00 AM 23.3924 113.2988 223° Southwest  Level Estimated
Mon 02:00:00 AM 23.3924 113.2988 223° Southwest  Level Estimated
Mon 02:01:00 AM 23.3924 113.2988 223° Southwest  Level Estimated
Mon 02:02:00 AM 23.3924 113.2988 223° Southwest  Level Estimated
Mon 02:03:00 AM 23.3924 113.2988 223° Southwest  Level Estimated
Mon 02:04:00 AM 23.3924 113.2988 223° Southwest  Level Estimated
Mon 02:05:00 AM 23.3924 113.2988 223° Southwest  Level Estimated

Login

Don't have an account? Register now (free) for customized features, flight alerts, and more!